sensor_id;sensor_type;location;lat;lon;timestamp;temperature;humidity
23715;DHT22;12036;50.858;4.472;2023-01-19T00:00:11;2.30;99.90
23715;DHT22;12036;50.858;4.472;2023-01-19T00:02:37;2.30;99.90
23715;DHT22;12036;50.858;4.472;2023-01-19T00:05:04;2.40;99.90
23715;DHT22;12036;50.858;4.472;2023-01-19T00:07:30;2.20;99.90
23715;DHT22;12036;50.858;4.472;2023-01-19T00:09:56;2.30;99.90
23715;DHT22;12036;50.858;4.472;2023-01-19T00:12:22;2.30;99.90
23715;DHT22;12036;50.858;4.472;2023-01-19T00:14:47;2.30;99.90
23715;DHT22;12036;50.858;4.472;2023-01-19T00:17:13;2.40;99.90
23715;DHT22;12036;50.858;4.472;2023-01-19T00:19:39;2.30;99.90
23715;DHT22;12036;50.858;4.472;2023-01-19T00:22:04;2.20;99.90
23715;DHT22;12036;50.858;4.472;2023-01-19T00:24:33;2.20;99.90
23715;DHT22;12036;50.858;4.472;2023-01-19T00:26:59;2.30;99.90
23715;DHT22;12036;50.858;4.472;2023-01-19T00:29:26;2.30;99.90
23715;DHT22;12036;50.858;4.472;2023-01-19T00:31:55;2.30;99.90
23715;DHT22;12036;50.858;4.472;2023-01-19T00:34:20;2.40;99.90
23715;DHT22;12036;50.858;4.472;2023-01-19T00:36:46;2.50;99.90
23715;DHT22;12036;50.858;4.472;2023-01-19T00:39:11;2.60;99.90
23715;DHT22;12036;50.858;4.472;2023-01-19T00:41:37;2.70;99.90
23715;DHT22;12036;50.858;4.472;2023-01-19T00:44:21;2.70;99.90
23715;DHT22;12036;50.858;4.472;2023-01-19T00:46:47;2.60;99.90
23715;DHT22;12036;50.858;4.472;2023-01-19T00:49:12;2.70;99.90
23715;DHT22;12036;50.858;4.472;2023-01-19T00:51:38;2.60;99.90
23715;DHT22;12036;50.858;4.472;2023-01-19T00:54:03;2.70;99.90
23715;DHT22;12036;50.858;4.472;2023-01-19T00:56:34;2.70;99.90
23715;DHT22;12036;50.858;4.472;2023-01-19T00:59:00;2.80;99.90
23715;DHT22;12036;50.858;4.472;2023-01-19T01:01:26;2.80;99.90
23715;DHT22;12036;50.858;4.472;2023-01-19T01:03:52;2.80;99.90
23715;DHT22;12036;50.858;4.472;2023-01-19T01:06:19;2.70;99.90
23715;DHT22;12036;50.858;4.472;2023-01-19T01:08:44;2.60;99.90
23715;DHT22;12036;50.858;4.472;2023-01-19T01:11:10;2.60;99.90
23715;DHT22;12036;50.858;4.472;2023-01-19T01:13:36;2.40;99.90
23715;DHT22;12036;50.858;4.472;2023-01-19T01:16:01;2.40;99.90
23715;DHT22;12036;50.858;4.472;2023-01-19T01:18:27;2.30;99.90
23715;DHT22;12036;50.858;4.472;2023-01-19T01:21:03;2.40;99.90
23715;DHT22;12036;50.858;4.472;2023-01-19T01:23:29;2.50;99.90
23715;DHT22;12036;50.858;4.472;2023-01-19T01:25:55;2.40;99.90
23715;DHT22;12036;50.858;4.472;2023-01-19T01:28:21;2.40;99.90
23715;DHT22;12036;50.858;4.472;2023-01-19T01:30:46;2.50;99.90
23715;DHT22;12036;50.858;4.472;2023-01-19T01:33:13;2.50;99.90
23715;DHT22;12036;50.858;4.472;2023-01-19T01:35:38;2.50;99.90
23715;DHT22;12036;50.858;4.472;2023-01-19T01:38:05;2.50;99.90
23715;DHT22;12036;50.858;4.472;2023-01-19T01:40:30;2.50;99.90
23715;DHT22;12036;50.858;4.472;2023-01-19T01:42:56;2.40;99.90
23715;DHT22;12036;50.858;4.472;2023-01-19T01:45:33;2.40;99.90
23715;DHT22;12036;50.858;4.472;2023-01-19T01:48:11;2.30;99.90
23715;DHT22;12036;50.858;4.472;2023-01-19T01:50:50;2.40;99.90
23715;DHT22;12036;50.858;4.472;2023-01-19T01:53:36;2.30;99.90
23715;DHT22;12036;50.858;4.472;2023-01-19T01:56:06;2.30;99.90
23715;DHT22;12036;50.858;4.472;2023-01-19T01:58:34;2.30;99.90
23715;DHT22;12036;50.858;4.472;2023-01-19T02:01:01;2.30;99.90
23715;DHT22;12036;50.858;4.472;2023-01-19T02:03:46;2.30;99.90
23715;DHT22;12036;50.858;4.472;2023-01-19T02:06:12;2.20;99.90
23715;DHT22;12036;50.858;4.472;2023-01-19T02:11:32;2.30;99.90
23715;DHT22;12036;50.858;4.472;2023-01-19T02:14:18;2.20;99.90
23715;DHT22;12036;50.858;4.472;2023-01-19T02:16:44;2.10;99.90
23715;DHT22;12036;50.858;4.472;2023-01-19T02:19:16;2.20;99.90
23715;DHT22;12036;50.858;4.472;2023-01-19T02:21:51;2.10;99.90
23715;DHT22;12036;50.858;4.472;2023-01-19T02:24:19;2.10;99.90
23715;DHT22;12036;50.858;4.472;2023-01-19T02:26:46;2.00;99.90
23715;DHT22;12036;50.858;4.472;2023-01-19T02:29:17;2.00;99.90
23715;DHT22;12036;50.858;4.472;2023-01-19T02:31:44;2.00;99.90
23715;DHT22;12036;50.858;4.472;2023-01-19T02:34:13;2.10;99.90
23715;DHT22;12036;50.858;4.472;2023-01-19T02:36:52;2.20;99.90
23715;DHT22;12036;50.858;4.472;2023-01-19T02:39:42;2.20;99.90
23715;DHT22;12036;50.858;4.472;2023-01-19T02:42:11;2.30;99.90
23715;DHT22;12036;50.858;4.472;2023-01-19T02:44:38;2.30;99.90
23715;DHT22;12036;50.858;4.472;2023-01-19T02:47:05;2.30;99.90
23715;DHT22;12036;50.858;4.472;2023-01-19T02:49:30;2.20;99.90
23715;DHT22;12036;50.858;4.472;2023-01-19T02:51:57;2.20;99.90
23715;DHT22;12036;50.858;4.472;2023-01-19T03:03:29;2.20;99.90
23715;DHT22;12036;50.858;4.472;2023-01-19T03:06:09;2.30;99.90
23715;DHT22;12036;50.858;4.472;2023-01-19T03:11:07;2.40;99.90
23715;DHT22;12036;50.858;4.472;2023-01-19T03:18:45;2.50;99.90
23715;DHT22;12036;50.858;4.472;2023-01-19T03:21:13;2.50;99.90
23715;DHT22;12036;50.858;4.472;2023-01-19T03:23:41;2.50;99.90
23715;DHT22;12036;50.858;4.472;2023-01-19T03:26:12;2.50;99.90
23715;DHT22;12036;50.858;4.472;2023-01-19T03:28:40;2.60;99.90
23715;DHT22;12036;50.858;4.472;2023-01-19T03:31:20;2.60;99.90
23715;DHT22;12036;50.858;4.472;2023-01-19T03:33:50;2.60;99.90
23715;DHT22;12036;50.858;4.472;2023-01-19T03:36:33;2.60;99.90
23715;DHT22;12036;50.858;4.472;2023-01-19T03:39:01;2.70;99.90
23715;DHT22;12036;50.858;4.472;2023-01-19T03:41:30;2.80;99.90
23715;DHT22;12036;50.858;4.472;2023-01-19T03:43:57;2.90;99.90
23715;DHT22;12036;50.858;4.472;2023-01-19T03:46:24;2.90;99.90
23715;DHT22;12036;50.858;4.472;2023-01-19T03:48:51;3.00;99.90
23715;DHT22;12036;50.858;4.472;2023-01-19T03:51:17;2.90;99.90
23715;DHT22;12036;50.858;4.472;2023-01-19T03:53:44;3.00;99.90
23715;DHT22;12036;50.858;4.472;2023-01-19T03:56:21;3.10;99.90
23715;DHT22;12036;50.858;4.472;2023-01-19T03:58:48;2.90;99.90
23715;DHT22;12036;50.858;4.472;2023-01-19T04:01:14;2.80;99.90
23715;DHT22;12036;50.858;4.472;2023-01-19T04:03:41;2.70;99.90
23715;DHT22;12036;50.858;4.472;2023-01-19T04:06:08;2.50;99.90
23715;DHT22;12036;50.858;4.472;2023-01-19T04:08:35;2.60;99.90
23715;DHT22;12036;50.858;4.472;2023-01-19T04:11:01;2.50;99.90
23715;DHT22;12036;50.858;4.472;2023-01-19T04:13:27;2.50;99.90
23715;DHT22;12036;50.858;4.472;2023-01-19T04:16:03;2.40;99.90
23715;DHT22;12036;50.858;4.472;2023-01-19T04:18:30;2.40;99.90
23715;DHT22;12036;50.858;4.472;2023-01-19T04:21:01;2.30;99.90
23715;DHT22;12036;50.858;4.472;2023-01-19T04:23:27;2.30;99.90
23715;DHT22;12036;50.858;4.472;2023-01-19T04:26:00;2.40;99.90
23715;DHT22;12036;50.858;4.472;2023-01-19T04:28:27;2.20;99.90
23715;DHT22;12036;50.858;4.472;2023-01-19T04:30:53;2.20;99.90
23715;DHT22;12036;50.858;4.472;2023-01-19T04:33:19;2.10;99.90
23715;DHT22;12036;50.858;4.472;2023-01-19T04:35:45;2.10;99.90
23715;DHT22;12036;50.858;4.472;2023-01-19T04:38:11;2.10;99.90
23715;DHT22;12036;50.858;4.472;2023-01-19T04:40:37;2.10;99.90
23715;DHT22;12036;50.858;4.472;2023-01-19T04:43:03;2.10;99.90
23715;DHT22;12036;50.858;4.472;2023-01-19T04:45:28;2.10;99.90
23715;DHT22;12036;50.858;4.472;2023-01-19T04:47:54;2.10;99.90
23715;DHT22;12036;50.858;4.472;2023-01-19T04:50:20;2.10;99.90
23715;DHT22;12036;50.858;4.472;2023-01-19T04:52:45;2.30;99.90
23715;DHT22;12036;50.858;4.472;2023-01-19T04:55:11;2.40;99.90
23715;DHT22;12036;50.858;4.472;2023-01-19T04:57:37;2.30;99.90
23715;DHT22;12036;50.858;4.472;2023-01-19T05:00:04;2.30;99.90
23715;DHT22;12036;50.858;4.472;2023-01-19T05:02:31;2.10;99.90
23715;DHT22;12036;50.858;4.472;2023-01-19T05:04:56;2.00;99.90
23715;DHT22;12036;50.858;4.472;2023-01-19T05:07:22;1.90;99.90
23715;DHT22;12036;50.858;4.472;2023-01-19T05:09:48;1.90;99.90
23715;DHT22;12036;50.858;4.472;2023-01-19T05:12:14;1.80;99.90
23715;DHT22;12036;50.858;4.472;2023-01-19T05:14:39;1.70;99.90
23715;DHT22;12036;50.858;4.472;2023-01-19T05:17:05;1.70;99.90
23715;DHT22;12036;50.858;4.472;2023-01-19T05:19:31;1.80;99.90
23715;DHT22;12036;50.858;4.472;2023-01-19T05:21:56;1.80;99.90
23715;DHT22;12036;50.858;4.472;2023-01-19T05:24:22;1.80;99.90
23715;DHT22;12036;50.858;4.472;2023-01-19T05:26:48;1.80;99.90
23715;DHT22;12036;50.858;4.472;2023-01-19T05:29:13;1.80;99.90
23715;DHT22;12036;50.858;4.472;2023-01-19T05:31:39;1.80;99.90
23715;DHT22;12036;50.858;4.472;2023-01-19T05:34:05;1.70;99.90
23715;DHT22;12036;50.858;4.472;2023-01-19T05:36:30;1.80;99.90
23715;DHT22;12036;50.858;4.472;2023-01-19T05:38:57;1.80;99.90
23715;DHT22;12036;50.858;4.472;2023-01-19T05:41:22;1.70;99.90
23715;DHT22;12036;50.858;4.472;2023-01-19T05:43:48;1.70;99.90
23715;DHT22;12036;50.858;4.472;2023-01-19T05:46:14;1.70;99.90
23715;DHT22;12036;50.858;4.472;2023-01-19T05:48:39;1.70;99.90
23715;DHT22;12036;50.858;4.472;2023-01-19T05:51:05;1.70;99.90
23715;DHT22;12036;50.858;4.472;2023-01-19T05:53:31;1.60;99.90
23715;DHT22;12036;50.858;4.472;2023-01-19T05:56:04;1.60;99.90
23715;DHT22;12036;50.858;4.472;2023-01-19T05:58:31;1.50;99.90
23715;DHT22;12036;50.858;4.472;2023-01-19T06:01:01;1.50;99.90
23715;DHT22;12036;50.858;4.472;2023-01-19T06:03:30;1.50;99.90
23715;DHT22;12036;50.858;4.472;2023-01-19T06:05:57;1.60;99.90
23715;DHT22;12036;50.858;4.472;2023-01-19T06:08:23;1.70;99.90
23715;DHT22;12036;50.858;4.472;2023-01-19T06:10:49;1.70;99.90
23715;DHT22;12036;50.858;4.472;2023-01-19T06:13:14;1.60;99.90
23715;DHT22;12036;50.858;4.472;2023-01-19T06:15:40;1.50;99.90
23715;DHT22;12036;50.858;4.472;2023-01-19T06:18:08;1.50;99.90
23715;DHT22;12036;50.858;4.472;2023-01-19T06:20:34;1.50;99.90
23715;DHT22;12036;50.858;4.472;2023-01-19T06:23:00;1.50;99.90
23715;DHT22;12036;50.858;4.472;2023-01-19T06:25:26;1.50;99.90
23715;DHT22;12036;50.858;4.472;2023-01-19T06:27:53;1.50;99.90
23715;DHT22;12036;50.858;4.472;2023-01-19T06:30:19;1.50;99.90
23715;DHT22;12036;50.858;4.472;2023-01-19T06:32:45;1.50;99.90
23715;DHT22;12036;50.858;4.472;2023-01-19T06:35:12;1.50;99.90
23715;DHT22;12036;50.858;4.472;2023-01-19T06:37:38;1.50;99.90
23715;DHT22;12036;50.858;4.472;2023-01-19T06:40:04;1.50;99.90
23715;DHT22;12036;50.858;4.472;2023-01-19T06:42:30;1.50;99.90
23715;DHT22;12036;50.858;4.472;2023-01-19T06:44:56;1.50;99.90
23715;DHT22;12036;50.858;4.472;2023-01-19T06:47:21;1.60;99.90
23715;DHT22;12036;50.858;4.472;2023-01-19T06:49:47;1.50;99.90
23715;DHT22;12036;50.858;4.472;2023-01-19T06:52:13;1.60;99.90
23715;DHT22;12036;50.858;4.472;2023-01-19T06:54:41;1.60;99.90
23715;DHT22;12036;50.858;4.472;2023-01-19T06:57:08;1.80;99.90
23715;DHT22;12036;50.858;4.472;2023-01-19T06:59:33;1.90;99.90
23715;DHT22;12036;50.858;4.472;2023-01-19T07:01:59;2.00;99.90
23715;DHT22;12036;50.858;4.472;2023-01-19T07:04:25;2.10;99.90
23715;DHT22;12036;50.858;4.472;2023-01-19T07:06:51;2.10;99.90
23715;DHT22;12036;50.858;4.472;2023-01-19T07:09:16;2.20;99.90
23715;DHT22;12036;50.858;4.472;2023-01-19T07:11:44;2.10;99.90
23715;DHT22;12036;50.858;4.472;2023-01-19T07:14:10;2.10;99.90
23715;DHT22;12036;50.858;4.472;2023-01-19T07:16:36;2.20;99.90
23715;DHT22;12036;50.858;4.472;2023-01-19T07:19:02;2.20;99.90
23715;DHT22;12036;50.858;4.472;2023-01-19T07:21:27;2.30;99.90
23715;DHT22;12036;50.858;4.472;2023-01-19T07:23:53;2.30;99.90
23715;DHT22;12036;50.858;4.472;2023-01-19T07:26:19;2.20;99.90
23715;DHT22;12036;50.858;4.472;2023-01-19T07:28:49;2.20;99.90
23715;DHT22;12036;50.858;4.472;2023-01-19T07:31:15;2.20;99.90
23715;DHT22;12036;50.858;4.472;2023-01-19T07:33:42;2.10;99.90
23715;DHT22;12036;50.858;4.472;2023-01-19T07:36:08;2.00;99.90
23715;DHT22;12036;50.858;4.472;2023-01-19T07:38:34;2.10;99.90
23715;DHT22;12036;50.858;4.472;2023-01-19T07:41:01;2.20;99.90
23715;DHT22;12036;50.858;4.472;2023-01-19T07:43:27;2.10;99.90
23715;DHT22;12036;50.858;4.472;2023-01-19T07:45:58;2.10;99.90
23715;DHT22;12036;50.858;4.472;2023-01-19T07:48:24;2.10;99.90
23715;DHT22;12036;50.858;4.472;2023-01-19T07:50:50;2.10;99.90
23715;DHT22;12036;50.858;4.472;2023-01-19T07:53:16;2.00;99.90
23715;DHT22;12036;50.858;4.472;2023-01-19T07:55:42;2.00;99.90
23715;DHT22;12036;50.858;4.472;2023-01-19T07:58:08;2.10;99.90
23715;DHT22;12036;50.858;4.472;2023-01-19T08:00:35;2.10;99.90
23715;DHT22;12036;50.858;4.472;2023-01-19T08:03:02;2.10;99.90
23715;DHT22;12036;50.858;4.472;2023-01-19T08:05:28;2.20;99.90
23715;DHT22;12036;50.858;4.472;2023-01-19T08:07:57;2.20;99.90
23715;DHT22;12036;50.858;4.472;2023-01-19T08:10:25;2.10;99.90
23715;DHT22;12036;50.858;4.472;2023-01-19T08:12:55;2.20;99.90
23715;DHT22;12036;50.858;4.472;2023-01-19T08:15:22;2.10;99.90
23715;DHT22;12036;50.858;4.472;2023-01-19T08:18:01;2.30;99.90
23715;DHT22;12036;50.858;4.472;2023-01-19T08:20:30;2.40;99.90
23715;DHT22;12036;50.858;4.472;2023-01-19T08:22:56;2.40;99.90
23715;DHT22;12036;50.858;4.472;2023-01-19T08:27:57;2.50;99.90
23715;DHT22;12036;50.858;4.472;2023-01-19T08:30:23;2.70;99.90
23715;DHT22;12036;50.858;4.472;2023-01-19T08:32:53;2.70;99.90
23715;DHT22;12036;50.858;4.472;2023-01-19T08:35:22;2.80;99.90
23715;DHT22;12036;50.858;4.472;2023-01-19T08:37:48;2.80;99.90
23715;DHT22;12036;50.858;4.472;2023-01-19T08:40:14;2.80;99.90
23715;DHT22;12036;50.858;4.472;2023-01-19T08:42:39;2.90;99.90
23715;DHT22;12036;50.858;4.472;2023-01-19T08:45:05;2.90;99.90
23715;DHT22;12036;50.858;4.472;2023-01-19T08:47:32;2.90;99.90
23715;DHT22;12036;50.858;4.472;2023-01-19T08:49:57;2.90;99.90
23715;DHT22;12036;50.858;4.472;2023-01-19T08:52:23;2.80;99.90
23715;DHT22;12036;50.858;4.472;2023-01-19T08:54:51;2.90;99.90
23715;DHT22;12036;50.858;4.472;2023-01-19T08:57:16;3.00;99.90
23715;DHT22;12036;50.858;4.472;2023-01-19T08:59:42;2.90;99.90
23715;DHT22;12036;50.858;4.472;2023-01-19T09:02:09;3.10;99.90
23715;DHT22;12036;50.858;4.472;2023-01-19T09:04:35;3.10;99.90
23715;DHT22;12036;50.858;4.472;2023-01-19T09:07:01;3.10;99.90
23715;DHT22;12036;50.858;4.472;2023-01-19T09:09:26;3.10;99.90
23715;DHT22;12036;50.858;4.472;2023-01-19T09:11:53;3.30;99.90
23715;DHT22;12036;50.858;4.472;2023-01-19T09:14:18;3.20;99.90
23715;DHT22;12036;50.858;4.472;2023-01-19T09:16:44;3.30;99.90
23715;DHT22;12036;50.858;4.472;2023-01-19T09:19:10;3.40;99.90
23715;DHT22;12036;50.858;4.472;2023-01-19T09:21:35;3.30;99.90
23715;DHT22;12036;50.858;4.472;2023-01-19T09:24:01;3.30;99.90
23715;DHT22;12036;50.858;4.472;2023-01-19T09:26:26;3.30;99.90
23715;DHT22;12036;50.858;4.472;2023-01-19T09:28:52;3.40;99.90
23715;DHT22;12036;50.858;4.472;2023-01-19T09:31:18;3.20;99.90
23715;DHT22;12036;50.858;4.472;2023-01-19T09:33:43;3.40;99.90
23715;DHT22;12036;50.858;4.472;2023-01-19T09:36:09;3.50;99.90
23715;DHT22;12036;50.858;4.472;2023-01-19T09:38:35;3.50;99.90
23715;DHT22;12036;50.858;4.472;2023-01-19T09:41:01;3.50;99.90
23715;DHT22;12036;50.858;4.472;2023-01-19T09:46:09;3.40;99.90
23715;DHT22;12036;50.858;4.472;2023-01-19T09:49:13;3.30;99.90
23715;DHT22;12036;50.858;4.472;2023-01-19T09:51:42;3.50;99.90
23715;DHT22;12036;50.858;4.472;2023-01-19T09:54:21;3.60;99.90
23715;DHT22;12036;50.858;4.472;2023-01-19T09:56:48;3.70;99.90
23715;DHT22;12036;50.858;4.472;2023-01-19T10:07:30;4.10;99.90
23715;DHT22;12036;50.858;4.472;2023-01-19T10:10:19;4.10;99.90
23715;DHT22;12036;50.858;4.472;2023-01-19T10:12:58;4.20;99.90
23715;DHT22;12036;50.858;4.472;2023-01-19T10:21:13;4.10;99.90
23715;DHT22;12036;50.858;4.472;2023-01-19T10:23:56;4.20;99.90
23715;DHT22;12036;50.858;4.472;2023-01-19T10:28:54;4.00;99.90
23715;DHT22;12036;50.858;4.472;2023-01-19T10:31:23;4.10;99.90
23715;DHT22;12036;50.858;4.472;2023-01-19T10:33:50;4.10;99.90
23715;DHT22;12036;50.858;4.472;2023-01-19T10:36:36;3.80;99.90
23715;DHT22;12036;50.858;4.472;2023-01-19T10:39:06;3.80;99.90
23715;DHT22;12036;50.858;4.472;2023-01-19T10:41:51;3.70;99.90
23715;DHT22;12036;50.858;4.472;2023-01-19T10:44:26;3.70;99.90
23715;DHT22;12036;50.858;4.472;2023-01-19T10:46:54;3.70;99.90
23715;DHT22;12036;50.858;4.472;2023-01-19T10:51:56;3.70;99.90
23715;DHT22;12036;50.858;4.472;2023-01-19T10:54:23;3.60;99.90
23715;DHT22;12036;50.858;4.472;2023-01-19T10:56:56;3.50;99.90
23715;DHT22;12036;50.858;4.472;2023-01-19T11:04:58;3.50;99.90
23715;DHT22;12036;50.858;4.472;2023-01-19T11:07:29;3.50;99.90
23715;DHT22;12036;50.858;4.472;2023-01-19T11:13:01;3.60;99.90
23715;DHT22;12036;50.858;4.472;2023-01-19T11:16:14;3.80;99.90
23715;DHT22;12036;50.858;4.472;2023-01-19T11:18:29;3.90;99.90
23715;DHT22;12036;50.858;4.472;2023-01-19T11:20:58;4.00;99.90
23715;DHT22;12036;50.858;4.472;2023-01-19T11:23:33;3.90;99.90
23715;DHT22;12036;50.858;4.472;2023-01-19T11:26:04;3.90;99.90
23715;DHT22;12036;50.858;4.472;2023-01-19T11:28:33;3.90;99.90
23715;DHT22;12036;50.858;4.472;2023-01-19T11:36:25;3.80;99.90
23715;DHT22;12036;50.858;4.472;2023-01-19T11:38:55;3.80;99.90
23715;DHT22;12036;50.858;4.472;2023-01-19T11:41:28;3.60;99.90
23715;DHT22;12036;50.858;4.472;2023-01-19T11:43:57;3.60;99.90
23715;DHT22;12036;50.858;4.472;2023-01-19T11:46:31;3.70;99.90
23715;DHT22;12036;50.858;4.472;2023-01-19T11:49:04;3.70;99.90
23715;DHT22;12036;50.858;4.472;2023-01-19T11:52:01;3.70;99.90
23715;DHT22;12036;50.858;4.472;2023-01-19T11:54:45;3.70;99.90
23715;DHT22;12036;50.858;4.472;2023-01-19T11:57:15;3.80;99.90
23715;DHT22;12036;50.858;4.472;2023-01-19T11:59:44;3.90;99.90
23715;DHT22;12036;50.858;4.472;2023-01-19T12:02:23;3.90;99.90
23715;DHT22;12036;50.858;4.472;2023-01-19T12:04:54;3.80;99.90
23715;DHT22;12036;50.858;4.472;2023-01-19T12:07:27;3.90;99.90
23715;DHT22;12036;50.858;4.472;2023-01-19T12:12:57;4.10;99.90
23715;DHT22;12036;50.858;4.472;2023-01-19T12:17:59;4.30;99.90
23715;DHT22;12036;50.858;4.472;2023-01-19T12:21:02;4.40;99.90
23715;DHT22;12036;50.858;4.472;2023-01-19T12:28:28;4.70;99.90
23715;DHT22;12036;50.858;4.472;2023-01-19T12:30:55;4.80;99.90
23715;DHT22;12036;50.858;4.472;2023-01-19T12:36:05;5.00;99.90
23715;DHT22;12036;50.858;4.472;2023-01-19T12:43:48;4.90;99.90
23715;DHT22;12036;50.858;4.472;2023-01-19T12:46:33;4.90;99.90
23715;DHT22;12036;50.858;4.472;2023-01-19T13:02:57;5.10;99.90
23715;DHT22;12036;50.858;4.472;2023-01-19T13:15:44;5.10;99.90
23715;DHT22;12036;50.858;4.472;2023-01-19T13:18:26;4.90;99.90
23715;DHT22;12036;50.858;4.472;2023-01-19T13:20:59;4.70;99.90
23715;DHT22;12036;50.858;4.472;2023-01-19T13:26:24;4.80;99.90
23715;DHT22;12036;50.858;4.472;2023-01-19T13:28:56;4.90;99.90
23715;DHT22;12036;50.858;4.472;2023-01-19T13:31:24;5.10;99.90
23715;DHT22;12036;50.858;4.472;2023-01-19T13:33:51;5.00;99.90
23715;DHT22;12036;50.858;4.472;2023-01-19T13:36:38;4.90;99.90
23715;DHT22;12036;50.858;4.472;2023-01-19T13:39:31;5.00;99.90
23715;DHT22;12036;50.858;4.472;2023-01-19T13:42:02;5.00;99.90
23715;DHT22;12036;50.858;4.472;2023-01-19T13:44:34;5.10;99.90
23715;DHT22;12036;50.858;4.472;2023-01-19T13:47:06;5.10;99.90
23715;DHT22;12036;50.858;4.472;2023-01-19T13:49:33;5.00;99.90
23715;DHT22;12036;50.858;4.472;2023-01-19T13:52:24;4.90;99.90
23715;DHT22;12036;50.858;4.472;2023-01-19T13:55:00;4.90;99.90
23715;DHT22;12036;50.858;4.472;2023-01-19T14:03:16;5.00;99.90
23715;DHT22;12036;50.858;4.472;2023-01-19T14:05:43;5.00;99.90
23715;DHT22;12036;50.858;4.472;2023-01-19T14:10:44;5.10;99.90
23715;DHT22;12036;50.858;4.472;2023-01-19T14:13:22;4.90;99.90
23715;DHT22;12036;50.858;4.472;2023-01-19T14:15:50;4.90;99.90
23715;DHT22;12036;50.858;4.472;2023-01-19T14:21:04;4.90;99.90
23715;DHT22;12036;50.858;4.472;2023-01-19T14:23:45;4.90;99.90
23715;DHT22;12036;50.858;4.472;2023-01-19T14:32:05;5.00;99.90
23715;DHT22;12036;50.858;4.472;2023-01-19T14:37:26;4.90;99.90
23715;DHT22;12036;50.858;4.472;2023-01-19T14:40:18;4.90;99.90
23715;DHT22;12036;50.858;4.472;2023-01-19T14:42:53;4.90;99.90
23715;DHT22;12036;50.858;4.472;2023-01-19T14:45:38;4.80;99.90
23715;DHT22;12036;50.858;4.472;2023-01-19T14:48:17;4.70;99.90
23715;DHT22;12036;50.858;4.472;2023-01-19T14:50:43;4.80;99.90
23715;DHT22;12036;50.858;4.472;2023-01-19T14:53:20;4.80;99.90
23715;DHT22;12036;50.858;4.472;2023-01-19T14:55:51;4.60;99.90
23715;DHT22;12036;50.858;4.472;2023-01-19T14:58:19;4.70;99.90
23715;DHT22;12036;50.858;4.472;2023-01-19T15:00:47;4.70;99.90
23715;DHT22;12036;50.858;4.472;2023-01-19T15:03:13;4.70;99.90
23715;DHT22;12036;50.858;4.472;2023-01-19T15:05:41;4.60;99.90
23715;DHT22;12036;50.858;4.472;2023-01-19T15:08:24;4.70;99.90
23715;DHT22;12036;50.858;4.472;2023-01-19T15:10:51;4.70;99.90
23715;DHT22;12036;50.858;4.472;2023-01-19T15:13:22;4.70;99.90
23715;DHT22;12036;50.858;4.472;2023-01-19T15:15:49;4.70;99.90
23715;DHT22;12036;50.858;4.472;2023-01-19T15:18:18;4.80;99.90
23715;DHT22;12036;50.858;4.472;2023-01-19T15:20:45;4.80;99.90
23715;DHT22;12036;50.858;4.472;2023-01-19T15:23:11;4.70;99.90
23715;DHT22;12036;50.858;4.472;2023-01-19T15:25:37;4.50;99.90
23715;DHT22;12036;50.858;4.472;2023-01-19T15:28:16;4.40;99.90
23715;DHT22;12036;50.858;4.472;2023-01-19T15:30:42;4.40;99.90
23715;DHT22;12036;50.858;4.472;2023-01-19T15:33:18;4.20;99.90
23715;DHT22;12036;50.858;4.472;2023-01-19T15:35:44;4.10;99.90
23715;DHT22;12036;50.858;4.472;2023-01-19T15:38:09;4.00;99.90
23715;DHT22;12036;50.858;4.472;2023-01-19T15:40:35;4.00;99.90
23715;DHT22;12036;50.858;4.472;2023-01-19T15:43:01;3.90;99.90
23715;DHT22;12036;50.858;4.472;2023-01-19T15:45:47;3.90;99.90
23715;DHT22;12036;50.858;4.472;2023-01-19T15:48:15;3.80;99.90
23715;DHT22;12036;50.858;4.472;2023-01-19T15:50:42;3.80;99.90
23715;DHT22;12036;50.858;4.472;2023-01-19T15:53:19;3.80;99.90
23715;DHT22;12036;50.858;4.472;2023-01-19T15:55:50;3.70;99.90
23715;DHT22;12036;50.858;4.472;2023-01-19T15:58:16;3.70;99.90
23715;DHT22;12036;50.858;4.472;2023-01-19T16:00:43;3.70;99.90
23715;DHT22;12036;50.858;4.472;2023-01-19T16:03:09;3.70;99.90
23715;DHT22;12036;50.858;4.472;2023-01-19T16:05:35;3.60;99.90
23715;DHT22;12036;50.858;4.472;2023-01-19T16:08:01;3.60;99.90
23715;DHT22;12036;50.858;4.472;2023-01-19T16:10:26;3.50;99.90
23715;DHT22;12036;50.858;4.472;2023-01-19T16:12:52;3.50;99.90
23715;DHT22;12036;50.858;4.472;2023-01-19T16:15:27;3.40;99.90
23715;DHT22;12036;50.858;4.472;2023-01-19T16:17:52;3.30;99.90
23715;DHT22;12036;50.858;4.472;2023-01-19T16:20:18;3.40;99.90
23715;DHT22;12036;50.858;4.472;2023-01-19T16:22:43;3.30;99.90
23715;DHT22;12036;50.858;4.472;2023-01-19T16:25:10;3.40;99.90
23715;DHT22;12036;50.858;4.472;2023-01-19T16:27:36;3.40;99.90
23715;DHT22;12036;50.858;4.472;2023-01-19T16:30:02;3.40;99.90
23715;DHT22;12036;50.858;4.472;2023-01-19T16:32:31;3.40;99.90
23715;DHT22;12036;50.858;4.472;2023-01-19T16:34:57;3.30;99.90
23715;DHT22;12036;50.858;4.472;2023-01-19T16:37:22;3.20;99.90
23715;DHT22;12036;50.858;4.472;2023-01-19T16:39:51;3.20;99.90
23715;DHT22;12036;50.858;4.472;2023-01-19T16:42:17;3.10;99.90
23715;DHT22;12036;50.858;4.472;2023-01-19T16:44:43;3.10;99.90
23715;DHT22;12036;50.858;4.472;2023-01-19T16:47:08;2.90;99.90
23715;DHT22;12036;50.858;4.472;2023-01-19T16:49:34;2.90;99.90
23715;DHT22;12036;50.858;4.472;2023-01-19T16:52:00;2.90;99.90
23715;DHT22;12036;50.858;4.472;2023-01-19T16:54:26;2.80;99.90
23715;DHT22;12036;50.858;4.472;2023-01-19T16:56:53;2.80;99.90
23715;DHT22;12036;50.858;4.472;2023-01-19T16:59:20;2.90;99.90
23715;DHT22;12036;50.858;4.472;2023-01-19T17:01:47;2.90;99.90
23715;DHT22;12036;50.858;4.472;2023-01-19T17:04:15;2.90;99.90
23715;DHT22;12036;50.858;4.472;2023-01-19T17:06:41;2.80;99.90
23715;DHT22;12036;50.858;4.472;2023-01-19T17:09:07;2.80;99.90
23715;DHT22;12036;50.858;4.472;2023-01-19T17:11:34;2.80;99.90
23715;DHT22;12036;50.858;4.472;2023-01-19T17:14:09;2.70;99.90
23715;DHT22;12036;50.858;4.472;2023-01-19T17:16:36;2.60;99.90
23715;DHT22;12036;50.858;4.472;2023-01-19T17:19:04;2.70;99.90
23715;DHT22;12036;50.858;4.472;2023-01-19T17:21:30;2.60;99.90
23715;DHT22;12036;50.858;4.472;2023-01-19T17:23:56;2.60;99.90
23715;DHT22;12036;50.858;4.472;2023-01-19T17:26:23;2.60;99.90
23715;DHT22;12036;50.858;4.472;2023-01-19T17:28:59;2.50;99.90
23715;DHT22;12036;50.858;4.472;2023-01-19T17:31:26;2.50;99.90
23715;DHT22;12036;50.858;4.472;2023-01-19T17:33:51;2.40;99.90
23715;DHT22;12036;50.858;4.472;2023-01-19T17:36:19;2.40;99.90
23715;DHT22;12036;50.858;4.472;2023-01-19T17:38:47;2.40;99.90
23715;DHT22;12036;50.858;4.472;2023-01-19T17:41:25;2.30;99.90
23715;DHT22;12036;50.858;4.472;2023-01-19T17:43:51;2.20;99.90
23715;DHT22;12036;50.858;4.472;2023-01-19T17:46:19;2.30;99.90
23715;DHT22;12036;50.858;4.472;2023-01-19T17:48:53;2.30;99.90
23715;DHT22;12036;50.858;4.472;2023-01-19T17:51:19;2.20;99.90
23715;DHT22;12036;50.858;4.472;2023-01-19T17:53:47;2.20;99.90
23715;DHT22;12036;50.858;4.472;2023-01-19T17:56:14;2.30;99.90
23715;DHT22;12036;50.858;4.472;2023-01-19T17:58:41;2.30;99.90